createdAt,value
2022-09-28T00:00:07.066Z,9.43
2022-09-28T00:01:07.057Z,9.45
2022-09-28T00:02:07.179Z,9.43
2022-09-28T00:03:07.152Z,9.45
2022-09-28T00:04:07.013Z,9.45
2022-09-28T00:05:07.009Z,9.45
2022-09-28T00:06:07.000Z,9.48
2022-09-28T00:07:07.009Z,9.48
2022-09-28T00:08:06.972Z,9.49
2022-09-28T00:09:06.961Z,9.50
2022-09-28T00:10:07.914Z,9.52
2022-09-28T00:11:06.942Z,9.50
2022-09-28T00:12:06.930Z,9.56
2022-09-28T00:13:06.932Z,9.52
2022-09-28T00:14:06.903Z,9.52
2022-09-28T00:15:06.894Z,9.52
2022-09-28T00:16:06.978Z,9.56
2022-09-28T00:17:06.933Z,9.52
2022-09-28T00:18:06.874Z,9.52
2022-09-28T00:19:07.158Z,9.53
2022-09-28T00:20:06.836Z,9.52
2022-09-28T00:21:06.835Z,9.52
2022-09-28T00:22:06.810Z,9.53
2022-09-28T00:23:07.771Z,9.56
2022-09-28T00:24:06.801Z,9.56
2022-09-28T00:25:06.790Z,9.56
2022-09-28T00:26:06.765Z,9.52
2022-09-28T00:27:06.766Z,9.53
2022-09-28T00:28:06.771Z,9.56
2022-09-28T00:29:06.752Z,9.53
2022-09-28T00:30:06.737Z,9.56
2022-09-28T00:31:06.753Z,9.56
2022-09-28T00:32:06.698Z,9.56
2022-09-28T00:33:06.721Z,9.57
2022-09-28T00:34:06.681Z,9.57
2022-09-28T00:35:06.679Z,9.57
2022-09-28T00:36:06.649Z,9.58
2022-09-28T00:37:06.640Z,9.58
2022-09-28T00:38:06.639Z,9.60
2022-09-28T00:39:06.637Z,9.60
2022-09-28T00:40:06.616Z,9.58
2022-09-28T00:41:06.602Z,9.58
2022-09-28T00:42:06.597Z,9.57
2022-09-28T00:43:06.573Z,9.58
2022-09-28T00:44:06.565Z,9.56
2022-09-28T00:45:06.563Z,9.57
2022-09-28T00:46:06.702Z,9.57
2022-09-28T00:47:06.532Z,9.57
2022-09-28T00:48:06.518Z,9.58
2022-09-28T00:49:06.525Z,9.58
2022-09-28T00:50:06.520Z,9.58
2022-09-28T00:51:06.503Z,9.58
2022-09-28T00:52:06.486Z,9.60
2022-09-28T00:53:06.455Z,9.60
2022-09-28T00:54:06.448Z,9.63
2022-09-28T00:55:06.467Z,9.63
2022-09-28T00:56:06.425Z,9.61
2022-09-28T00:57:06.426Z,9.66
2022-09-28T00:58:06.413Z,9.64
2022-09-28T00:59:06.420Z,9.66
2022-09-28T01:00:06.403Z,9.64
2022-09-28T01:01:06.434Z,9.67
2022-09-28T01:02:06.427Z,9.68
2022-09-28T01:03:06.356Z,9.67
2022-09-28T01:04:06.341Z,9.68
2022-09-28T01:05:06.339Z,9.70
2022-09-28T01:06:06.317Z,9.70
2022-09-28T01:07:06.309Z,9.68
2022-09-28T01:08:06.297Z,9.70
2022-09-28T01:09:06.290Z,9.70
2022-09-28T01:10:06.287Z,9.70
2022-09-28T01:11:06.263Z,9.67
2022-09-28T01:12:06.256Z,9.67
2022-09-28T01:13:07.195Z,9.68
2022-09-28T01:14:06.221Z,9.67
2022-09-28T01:15:06.230Z,9.67
2022-09-28T01:16:06.254Z,9.67
2022-09-28T01:17:06.199Z,9.66
2022-09-28T01:18:06.181Z,9.67
2022-09-28T01:19:06.172Z,9.66
2022-09-28T01:20:06.174Z,9.67
2022-09-28T01:21:06.157Z,9.66
2022-09-28T01:22:06.156Z,9.67
2022-09-28T01:23:06.128Z,9.68
2022-09-28T01:24:06.115Z,9.70
2022-09-28T01:25:06.123Z,9.70
2022-09-28T01:26:06.083Z,9.70
2022-09-28T01:27:06.087Z,9.67
2022-09-28T01:28:06.078Z,9.66
2022-09-28T01:29:06.068Z,9.64
2022-09-28T01:30:06.046Z,9.64
2022-09-28T01:31:06.046Z,9.64
2022-09-28T01:32:06.027Z,9.66
2022-09-28T01:33:06.037Z,9.66
2022-09-28T01:34:06.007Z,9.66
2022-09-28T01:35:05.996Z,9.64
2022-09-28T01:36:05.983Z,9.64
2022-09-28T01:37:05.984Z,9.64
2022-09-28T01:38:05.975Z,9.66
2022-09-28T01:39:05.947Z,9.66
2022-09-28T01:40:05.937Z,9.67
2022-09-28T01:41:05.927Z,9.66
2022-09-28T01:42:05.920Z,9.67
2022-09-28T01:43:05.912Z,9.67
2022-09-28T01:44:05.904Z,9.67
2022-09-28T01:45:05.904Z,9.70
2022-09-28T01:46:05.943Z,9.67
2022-09-28T01:47:05.873Z,9.68
2022-09-28T01:48:05.851Z,9.67
2022-09-28T01:49:05.843Z,9.67
2022-09-28T01:50:05.824Z,9.67
2022-09-28T01:51:05.839Z,9.66
2022-09-28T01:52:05.801Z,9.67
2022-09-28T01:53:05.809Z,9.67
2022-09-28T01:54:05.806Z,9.67
2022-09-28T01:55:05.767Z,9.67
2022-09-28T01:56:05.764Z,9.66
2022-09-28T01:57:05.754Z,9.66
2022-09-28T01:58:05.733Z,9.66
2022-09-28T01:59:05.722Z,9.64
2022-09-28T02:00:06.691Z,9.64
2022-09-28T02:01:05.774Z,9.64
2022-09-28T02:02:05.747Z,9.66
2022-09-28T02:03:05.675Z,9.67
2022-09-28T02:04:05.708Z,9.66
2022-09-28T02:05:05.661Z,9.67
2022-09-28T02:06:06.585Z,9.67
2022-09-28T02:07:05.626Z,9.68
2022-09-28T02:08:05.640Z,9.68
2022-09-28T02:09:05.604Z,9.67
2022-09-28T02:10:05.596Z,9.67
2022-09-28T02:11:05.577Z,9.67
2022-09-28T02:12:05.581Z,9.67
2022-09-28T02:13:05.586Z,9.67
2022-09-28T02:14:05.552Z,9.68
2022-09-28T02:15:05.548Z,9.67
2022-09-28T02:16:05.621Z,9.68
2022-09-28T02:17:05.517Z,9.70
2022-09-28T02:18:05.518Z,9.70
2022-09-28T02:19:05.495Z,9.68
2022-09-28T02:20:05.490Z,9.68
2022-09-28T02:21:05.500Z,9.66
2022-09-28T02:22:05.460Z,9.64
2022-09-28T02:23:05.466Z,9.63
2022-09-28T02:24:05.436Z,9.60
2022-09-28T02:25:06.382Z,9.60
2022-09-28T02:26:05.420Z,9.57
2022-09-28T02:27:05.442Z,9.56
2022-09-28T02:28:05.394Z,9.56
2022-09-28T02:29:05.401Z,9.53
2022-09-28T02:30:06.351Z,9.52
2022-09-28T02:31:05.422Z,9.52
2022-09-28T02:32:05.383Z,9.53
2022-09-28T02:33:05.362Z,9.56
2022-09-28T02:34:05.325Z,9.56
2022-09-28T02:35:06.290Z,9.56
2022-09-28T02:36:05.304Z,9.57
2022-09-28T02:37:05.354Z,9.58
2022-09-28T02:38:05.284Z,9.60
2022-09-28T02:39:05.277Z,9.58
2022-09-28T02:40:06.235Z,9.58
2022-09-28T02:41:05.260Z,9.60
2022-09-28T02:42:05.246Z,9.60
2022-09-28T02:43:05.238Z,9.61
2022-09-28T02:44:05.228Z,9.60
2022-09-28T02:45:06.165Z,9.63
2022-09-28T02:46:05.273Z,9.63
2022-09-28T02:47:05.197Z,9.63
2022-09-28T02:48:05.177Z,9.61
2022-09-28T02:49:30.087Z,9.64
2022-09-28T02:50:06.164Z,9.63
2022-09-28T02:51:05.147Z,9.63
2022-09-28T02:52:05.139Z,9.63
2022-09-28T02:53:05.119Z,9.63
2022-09-28T02:54:05.114Z,9.64
2022-09-28T02:55:06.057Z,9.66
2022-09-28T02:56:05.115Z,9.66
2022-09-28T02:57:05.089Z,9.64
2022-09-28T02:58:05.077Z,9.64
2022-09-28T02:59:05.053Z,9.66
2022-09-28T03:00:06.018Z,9.66
2022-09-28T03:01:05.100Z,9.67
2022-09-28T03:02:05.064Z,9.67
2022-09-28T03:03:05.004Z,9.68
2022-09-28T03:04:04.993Z,9.68
2022-09-28T03:05:05.003Z,9.67
2022-09-28T03:06:04.979Z,9.67
2022-09-28T03:07:04.989Z,9.67
2022-09-28T03:08:04.984Z,9.66
2022-09-28T03:09:04.941Z,9.66
2022-09-28T03:10:04.934Z,9.67
2022-09-28T03:11:04.935Z,9.67
2022-09-28T03:12:04.905Z,9.68
2022-09-28T03:13:04.910Z,9.70
2022-09-28T03:14:04.917Z,9.67
2022-09-28T03:15:05.827Z,9.67
2022-09-28T03:16:04.893Z,9.67
2022-09-28T03:17:04.888Z,9.66
2022-09-28T03:18:04.849Z,9.68
2022-09-28T03:19:04.828Z,9.67
2022-09-28T03:20:05.502Z,9.67
2022-09-28T03:21:04.817Z,9.67
2022-09-28T03:22:04.803Z,9.68
2022-09-28T03:23:24.715Z,9.67
2022-09-28T03:24:05.777Z,9.67
2022-09-28T03:25:05.736Z,9.67
2022-09-28T03:26:04.748Z,9.67
2022-09-28T03:27:04.740Z,9.67
2022-09-28T03:28:04.730Z,9.66
2022-09-28T03:29:04.716Z,9.66
2022-09-28T03:30:05.681Z,9.66
2022-09-28T03:31:04.851Z,9.61
2022-09-28T03:32:04.690Z,9.60
2022-09-28T03:33:04.671Z,9.63
2022-09-28T03:34:04.671Z,9.61
2022-09-28T03:35:05.606Z,9.61
2022-09-28T03:36:04.663Z,9.63
2022-09-28T03:37:04.626Z,9.61
2022-09-28T03:38:04.624Z,9.61
2022-09-28T03:39:04.608Z,9.58
2022-09-28T03:40:04.687Z,9.60
2022-09-28T03:41:04.602Z,9.57
2022-09-28T03:42:04.593Z,9.58
2022-09-28T03:43:04.562Z,9.58
2022-09-28T03:44:04.557Z,9.58
2022-09-28T03:45:04.557Z,9.57
2022-09-28T03:46:04.659Z,9.58
2022-09-28T03:47:04.515Z,9.58
2022-09-28T03:48:04.495Z,9.58
2022-09-28T03:49:04.492Z,9.58
2022-09-28T03:50:04.490Z,9.58
2022-09-28T03:51:04.485Z,9.57
2022-09-28T03:52:04.463Z,9.57
2022-09-28T03:53:04.457Z,9.58
2022-09-28T03:54:04.438Z,9.58
2022-09-28T03:55:04.441Z,9.60
2022-09-28T03:56:04.415Z,9.60
2022-09-28T03:57:04.397Z,9.63
2022-09-28T03:58:04.409Z,9.60
2022-09-28T03:59:04.397Z,9.58
2022-09-28T04:00:04.447Z,9.60
2022-09-28T04:01:04.442Z,9.60
2022-09-28T04:02:04.419Z,9.58
2022-09-28T04:03:04.328Z,9.58
2022-09-28T04:04:04.329Z,9.60
2022-09-28T04:05:04.308Z,9.60
2022-09-28T04:06:04.315Z,9.60
2022-09-28T04:07:04.296Z,9.61
2022-09-28T04:08:04.280Z,9.60
2022-09-28T04:09:04.282Z,9.60
2022-09-28T04:10:04.251Z,9.60
2022-09-28T04:11:04.243Z,9.58
2022-09-28T04:12:04.719Z,9.57
2022-09-28T04:13:04.221Z,9.58
2022-09-28T04:14:04.217Z,9.58
2022-09-28T04:15:04.222Z,9.58
2022-09-28T04:16:04.243Z,9.58
2022-09-28T04:17:04.180Z,9.58
2022-09-28T04:18:04.184Z,9.58
2022-09-28T04:19:04.152Z,9.58
2022-09-28T04:20:04.168Z,9.57
2022-09-28T04:21:04.146Z,9.56
2022-09-28T04:22:04.120Z,9.56
2022-09-28T04:23:04.120Z,9.53
2022-09-28T04:24:04.084Z,9.56
2022-09-28T04:25:04.085Z,9.56
2022-09-28T04:26:04.088Z,9.56
2022-09-28T04:27:04.059Z,9.57
2022-09-28T04:28:04.057Z,9.56
2022-09-28T04:29:06.632Z,9.53
2022-09-28T04:30:04.040Z,9.56
2022-09-28T04:31:04.050Z,9.53
2022-09-28T04:32:04.047Z,9.56
2022-09-28T04:33:03.995Z,9.56
2022-09-28T04:34:03.992Z,9.56
2022-09-28T04:35:03.988Z,9.53
2022-09-28T04:36:03.979Z,9.52
2022-09-28T04:37:03.970Z,9.53
2022-09-28T04:38:03.943Z,9.52
2022-09-28T04:39:03.928Z,9.50
2022-09-28T04:40:03.913Z,9.48
2022-09-28T04:41:03.911Z,9.49
2022-09-28T04:42:03.900Z,9.48
2022-09-28T04:43:04.845Z,9.48
2022-09-28T04:44:03.870Z,9.48
2022-09-28T04:45:03.862Z,9.49
2022-09-28T04:46:03.886Z,9.49
2022-09-28T04:47:05.290Z,9.48
2022-09-28T04:48:03.842Z,9.49
2022-09-28T04:49:03.813Z,9.50
2022-09-28T04:50:03.822Z,9.50
2022-09-28T04:51:03.804Z,9.52
2022-09-28T04:52:03.795Z,9.52
2022-09-28T04:53:03.767Z,9.52
2022-09-28T04:54:03.755Z,9.49
2022-09-28T04:55:03.746Z,9.40
2022-09-28T04:56:03.735Z,9.32
2022-09-28T04:57:03.726Z,9.27
2022-09-28T04:58:03.720Z,9.23
2022-09-28T04:59:03.695Z,9.21
2022-09-28T05:00:03.704Z,9.23
2022-09-28T05:01:03.779Z,9.24
2022-09-28T05:02:03.725Z,9.23
2022-09-28T05:03:03.672Z,9.24
2022-09-28T05:04:03.650Z,9.27
2022-09-28T05:05:03.633Z,9.27
2022-09-28T05:06:03.633Z,9.25
2022-09-28T05:07:03.624Z,9.30
2022-09-28T05:08:03.603Z,9.31
2022-09-28T05:09:03.585Z,9.30
2022-09-28T05:10:03.575Z,9.31
2022-09-28T05:11:03.570Z,9.31
2022-09-28T05:12:03.575Z,9.31
2022-09-28T05:13:03.548Z,9.31
2022-09-28T05:14:03.548Z,9.31
2022-09-28T05:15:03.531Z,9.31
2022-09-28T05:16:05.585Z,9.28
2022-09-28T05:17:04.456Z,9.28
2022-09-28T05:18:03.530Z,9.28
2022-09-28T05:19:03.477Z,9.27
2022-09-28T05:20:03.479Z,9.24
2022-09-28T05:21:03.472Z,9.23
2022-09-28T05:22:03.469Z,9.23
2022-09-28T05:23:03.434Z,9.21
2022-09-28T05:24:03.436Z,9.21
2022-09-28T05:25:03.405Z,9.20
2022-09-28T05:26:03.392Z,9.20
2022-09-28T05:27:03.410Z,9.21
2022-09-28T05:28:03.374Z,9.21
2022-09-28T05:29:03.363Z,9.21
2022-09-28T05:30:03.357Z,9.21
2022-09-28T05:31:03.348Z,9.20
2022-09-28T05:32:03.408Z,9.20
2022-09-28T05:33:03.322Z,9.18
2022-09-28T05:34:03.331Z,9.16
2022-09-28T05:35:03.294Z,9.15
2022-09-28T05:36:03.278Z,9.15
2022-09-28T05:37:03.286Z,9.13
2022-09-28T05:38:03.276Z,9.12
2022-09-28T05:39:03.265Z,9.12
2022-09-28T05:40:03.238Z,9.12
2022-09-28T05:41:06.370Z,9.12
2022-09-28T05:42:03.209Z,9.12
2022-09-28T05:43:03.197Z,9.10
2022-09-28T05:44:03.193Z,9.13
2022-09-28T05:45:03.192Z,9.13
2022-09-28T05:46:03.230Z,9.12
2022-09-28T05:47:03.169Z,9.12
2022-09-28T05:48:03.160Z,9.13
2022-09-28T05:49:03.130Z,9.15
2022-09-28T05:50:03.120Z,9.16
2022-09-28T05:51:03.112Z,9.18
2022-09-28T05:52:03.114Z,9.21
2022-09-28T05:53:03.103Z,9.21
2022-09-28T05:54:06.040Z,9.23
2022-09-28T05:55:03.079Z,9.24
2022-09-28T05:56:03.077Z,9.24
2022-09-28T05:57:03.043Z,9.27
2022-09-28T05:58:03.048Z,9.25
2022-09-28T05:59:03.014Z,9.28
2022-09-28T06:00:03.014Z,9.27
2022-09-28T06:01:03.039Z,9.31
2022-09-28T06:02:03.024Z,9.31
2022-09-28T06:03:06.732Z,9.32
2022-09-28T06:04:03.963Z,9.30
2022-09-28T06:05:02.962Z,9.28
2022-09-28T06:06:02.957Z,9.28
2022-09-28T06:07:02.930Z,9.28
2022-09-28T06:08:02.929Z,9.24
2022-09-28T06:09:02.909Z,9.23
2022-09-28T06:10:02.886Z,9.23
2022-09-28T06:11:02.900Z,9.21
2022-09-28T06:12:02.875Z,9.20
2022-09-28T06:13:02.860Z,9.21
2022-09-28T06:14:02.859Z,9.21
2022-09-28T06:15:02.841Z,9.23
2022-09-28T06:16:02.839Z,9.24
2022-09-28T06:17:02.940Z,9.23
2022-09-28T06:18:02.822Z,9.23
2022-09-28T06:19:02.808Z,9.24
2022-09-28T06:20:02.783Z,9.28
2022-09-28T06:21:02.792Z,9.28
2022-09-28T06:22:02.760Z,9.32
2022-09-28T06:23:02.767Z,9.32
2022-09-28T06:24:02.755Z,9.35
2022-09-28T06:25:02.736Z,9.35
2022-09-28T06:26:02.714Z,9.38
2022-09-28T06:27:03.671Z,9.38
2022-09-28T06:28:02.692Z,9.38
2022-09-28T06:29:02.696Z,9.39
2022-09-28T06:30:02.674Z,9.38
2022-09-28T06:31:02.836Z,9.38
2022-09-28T06:32:02.650Z,9.38
2022-09-28T06:33:02.647Z,9.38
2022-09-28T06:34:02.627Z,9.39
2022-09-28T06:35:02.624Z,9.39
2022-09-28T06:36:02.619Z,9.39
2022-09-28T06:37:02.602Z,9.42
2022-09-28T06:38:02.604Z,9.42
2022-09-28T06:39:02.585Z,9.40
2022-09-28T06:40:02.571Z,9.38
2022-09-28T06:41:02.633Z,9.39
2022-09-28T06:42:02.546Z,9.40
2022-09-28T06:43:03.994Z,9.40
2022-09-28T06:44:02.516Z,9.40
2022-09-28T06:45:02.506Z,9.43
2022-09-28T06:46:02.598Z,9.40
2022-09-28T06:47:02.477Z,9.42
2022-09-28T06:48:03.444Z,9.43
2022-09-28T06:49:02.469Z,9.43
2022-09-28T06:50:02.456Z,9.42
2022-09-28T06:51:02.437Z,9.42
2022-09-28T06:52:02.421Z,9.42
2022-09-28T06:53:02.440Z,9.43
2022-09-28T06:54:02.389Z,9.42
2022-09-28T06:55:02.381Z,9.43
2022-09-28T06:56:02.392Z,9.46
2022-09-28T06:57:02.376Z,9.49
2022-09-28T06:58:02.351Z,9.52
2022-09-28T06:59:02.342Z,9.56
2022-09-28T07:00:02.880Z,9.60
2022-09-28T07:01:02.368Z,9.63
2022-09-28T07:02:02.408Z,9.67
2022-09-28T07:03:02.299Z,9.71
2022-09-28T07:04:02.387Z,9.75
2022-09-28T07:05:02.303Z,9.78
2022-09-28T07:06:02.293Z,9.78
2022-09-28T07:07:02.451Z,9.81
2022-09-28T07:08:02.886Z,9.79
2022-09-28T07:09:15.937Z,9.81
2022-09-28T07:10:03.235Z,9.82
2022-09-28T07:11:02.890Z,9.85
2022-09-28T07:12:02.265Z,9.88
2022-09-28T07:13:02.370Z,9.93
2022-09-28T07:14:02.436Z,9.97
2022-09-28T07:15:02.173Z,10.00
2022-09-28T07:16:02.168Z,10.03
2022-09-28T07:17:13.242Z,10.04
2022-09-28T07:18:04.167Z,10.04
2022-09-28T07:19:02.133Z,9.96
2022-09-28T07:20:13.644Z,9.94
2022-09-28T07:21:03.117Z,9.97
2022-09-28T07:22:05.428Z,9.96
2022-09-28T07:23:13.904Z,9.97
2022-09-28T07:24:03.067Z,10.01
2022-09-28T07:25:02.075Z,10.01
2022-09-28T07:26:02.269Z,10.01
2022-09-28T07:27:02.995Z,10.04
2022-09-28T07:28:02.976Z,10.09
2022-09-28T07:29:02.963Z,10.10
2022-09-28T07:30:02.960Z,10.10
2022-09-28T07:31:02.985Z,10.09
2022-09-28T07:32:01.981Z,10.12
2022-09-28T07:33:01.982Z,10.12
2022-09-28T07:34:01.953Z,10.15
2022-09-28T07:35:02.894Z,10.19
2022-09-28T07:36:01.930Z,10.19
2022-09-28T07:37:01.912Z,10.17
2022-09-28T07:38:01.901Z,10.18
2022-09-28T07:39:01.915Z,10.18
2022-09-28T07:40:01.942Z,10.18
2022-09-28T07:41:01.987Z,10.18
2022-09-28T07:42:03.004Z,10.18
2022-09-28T07:43:01.854Z,10.15
2022-09-28T07:44:01.848Z,10.15
2022-09-28T07:45:01.829Z,10.14
2022-09-28T07:46:01.888Z,10.15
2022-09-28T07:47:01.799Z,10.15
2022-09-28T07:48:01.860Z,10.17
2022-09-28T07:49:01.801Z,10.18
2022-09-28T07:50:01.764Z,10.18
2022-09-28T07:51:01.779Z,10.18
2022-09-28T07:52:01.754Z,10.18
2022-09-28T07:53:01.750Z,10.17
2022-09-28T07:54:01.730Z,10.19
2022-09-28T07:55:06.613Z,10.19
2022-09-28T07:56:02.710Z,10.18
2022-09-28T07:57:01.680Z,10.18
2022-09-28T07:58:01.685Z,10.17
2022-09-28T07:59:01.676Z,10.19
2022-09-28T08:00:01.658Z,10.17
2022-09-28T08:01:01.682Z,10.19
2022-09-28T08:02:01.703Z,10.18
2022-09-28T08:03:01.627Z,10.19
2022-09-28T08:04:01.621Z,10.18
2022-09-28T08:05:01.596Z,10.18
2022-09-28T08:06:01.597Z,10.18
2022-09-28T08:07:01.583Z,10.19
2022-09-28T08:08:01.560Z,10.21
2022-09-28T08:09:01.564Z,10.22
2022-09-28T08:10:01.542Z,10.24
2022-09-28T08:11:01.564Z,10.24
2022-09-28T08:12:01.533Z,10.25
2022-09-28T08:13:02.838Z,10.25
2022-09-28T08:14:01.494Z,10.26
2022-09-28T08:15:01.485Z,10.26
2022-09-28T08:16:02.186Z,10.24
2022-09-28T08:17:01.455Z,10.24
2022-09-28T08:18:02.877Z,10.22
2022-09-28T08:19:01.488Z,10.24
2022-09-28T08:20:01.446Z,10.25
2022-09-28T08:21:02.905Z,10.30
2022-09-28T08:22:01.396Z,10.32
2022-09-28T08:23:01.403Z,10.33
2022-09-28T08:24:01.381Z,10.34
2022-09-28T08:25:01.385Z,10.34
2022-09-28T08:26:01.357Z,10.32
2022-09-28T08:27:01.358Z,10.33
2022-09-28T08:28:01.330Z,10.37
2022-09-28T08:29:01.327Z,10.39
2022-09-28T08:30:01.335Z,10.43
2022-09-28T08:31:01.349Z,10.43
2022-09-28T08:32:01.918Z,10.51
2022-09-28T08:33:01.291Z,10.47
2022-09-28T08:34:01.263Z,10.52
2022-09-28T08:35:01.270Z,10.56
2022-09-28T08:36:01.703Z,10.56
2022-09-28T08:37:01.235Z,10.60
2022-09-28T08:38:01.219Z,10.63
2022-09-28T08:39:01.213Z,10.68
2022-09-28T08:40:01.213Z,10.68
2022-09-28T08:41:01.258Z,10.70
2022-09-28T08:42:01.180Z,10.73
2022-09-28T08:43:01.167Z,10.73
2022-09-28T08:44:01.154Z,10.76
2022-09-28T08:45:01.154Z,10.77
2022-09-28T08:46:01.214Z,10.73
2022-09-28T08:47:01.135Z,10.74
2022-09-28T08:48:01.122Z,10.77
2022-09-28T08:49:23.775Z,10.71
2022-09-28T08:50:02.805Z,10.71
2022-09-28T08:51:01.079Z,10.70
2022-09-28T08:52:01.066Z,10.66
2022-09-28T08:53:01.058Z,10.66
2022-09-28T08:54:01.064Z,10.65
2022-09-28T08:55:01.027Z,10.65
2022-09-28T08:56:01.046Z,10.63
2022-09-28T08:57:03.462Z,10.63
2022-09-28T08:58:01.004Z,10.60
2022-09-28T08:59:01.950Z,10.56
2022-09-28T09:00:00.991Z,10.53
2022-09-28T09:01:01.069Z,10.53
2022-09-28T09:02:01.058Z,10.55
2022-09-28T09:03:00.946Z,10.55
2022-09-28T09:04:00.928Z,10.56
2022-09-28T09:05:00.960Z,10.58
2022-09-28T09:06:00.903Z,10.59
2022-09-28T09:07:00.956Z,10.59
2022-09-28T09:08:00.880Z,10.60
2022-09-28T09:09:02.331Z,10.62
2022-09-28T09:10:00.869Z,10.63
2022-09-28T09:11:00.849Z,10.63
2022-09-28T09:12:00.833Z,10.62
2022-09-28T09:13:00.850Z,10.63
2022-09-28T09:14:00.810Z,10.66
2022-09-28T09:15:00.824Z,10.70
2022-09-28T09:16:00.784Z,10.73
2022-09-28T09:17:01.093Z,10.74
2022-09-28T09:18:00.797Z,10.77
2022-09-28T09:19:00.766Z,10.81
2022-09-28T09:20:00.746Z,10.88
2022-09-28T09:21:00.741Z,10.88
2022-09-28T09:22:00.737Z,10.91
2022-09-28T09:23:00.715Z,10.94
2022-09-28T09:24:02.159Z,10.98
2022-09-28T09:25:00.683Z,10.99
2022-09-28T09:26:00.689Z,10.99
2022-09-28T09:27:00.673Z,11.02
2022-09-28T09:28:00.658Z,11.06
2022-09-28T09:29:00.647Z,11.07
2022-09-28T09:30:00.656Z,11.09
2022-09-28T09:31:00.624Z,11.11
2022-09-28T09:32:00.613Z,11.06
2022-09-28T09:33:00.615Z,10.99
2022-09-28T09:34:00.577Z,11.01
2022-09-28T09:35:00.570Z,10.98
2022-09-28T09:36:00.572Z,10.92
2022-09-28T09:37:00.552Z,10.88
2022-09-28T09:38:00.557Z,10.78
2022-09-28T09:39:00.589Z,10.78
2022-09-28T09:40:00.520Z,10.76
2022-09-28T09:41:00.694Z,10.74
2022-09-28T09:42:00.517Z,10.77
2022-09-28T09:43:00.492Z,10.77
2022-09-28T09:44:00.499Z,10.83
2022-09-28T09:45:00.473Z,10.92
2022-09-28T09:46:00.494Z,10.98
2022-09-28T09:47:00.440Z,11.01
2022-09-28T09:48:00.431Z,10.96
2022-09-28T09:49:00.433Z,10.94
2022-09-28T09:50:04.069Z,10.94
2022-09-28T09:51:01.397Z,10.89
2022-09-28T09:52:00.409Z,10.81
2022-09-28T09:53:00.385Z,10.81
2022-09-28T09:54:00.362Z,10.81
2022-09-28T09:55:00.352Z,10.88
2022-09-28T09:56:00.344Z,10.91
2022-09-28T09:57:00.343Z,10.89
2022-09-28T09:58:00.318Z,10.88
2022-09-28T09:59:00.306Z,10.88
2022-09-28T10:00:00.298Z,10.88
2022-09-28T10:01:00.330Z,10.88
2022-09-28T10:02:00.327Z,10.77
2022-09-28T10:03:00.375Z,10.76
2022-09-28T10:04:00.267Z,10.77
2022-09-28T10:05:00.248Z,10.78
2022-09-28T10:06:00.228Z,10.81
2022-09-28T10:07:00.218Z,10.84
2022-09-28T10:08:00.196Z,10.89
2022-09-28T10:09:00.217Z,10.92
2022-09-28T10:10:00.186Z,10.95
2022-09-28T10:11:00.186Z,10.98
2022-09-28T10:12:00.160Z,11.01
2022-09-28T10:13:00.152Z,10.99
2022-09-28T10:14:00.153Z,11.03
2022-09-28T10:15:00.132Z,11.03
2022-09-28T10:16:00.120Z,10.98
2022-09-28T10:17:00.179Z,11.01
2022-09-28T10:18:00.103Z,11.01
2022-09-28T10:19:00.099Z,10.96
2022-09-28T10:20:00.089Z,10.96
2022-09-28T10:21:00.089Z,11.01
2022-09-28T10:22:00.058Z,11.09
2022-09-28T10:23:00.046Z,11.16
2022-09-28T10:24:00.033Z,11.24
2022-09-28T10:25:00.017Z,11.36
2022-09-28T10:26:00.209Z,11.38
2022-09-28T10:26:59.990Z,11.43
2022-09-28T10:27:59.986Z,11.53
2022-09-28T10:28:59.985Z,11.59
2022-09-28T10:29:59.969Z,11.62
2022-09-28T10:31:00.094Z,11.67
2022-09-28T10:31:59.944Z,11.71
2022-09-28T10:32:59.924Z,11.74
2022-09-28T10:33:59.918Z,11.77
2022-09-28T10:34:59.933Z,11.78
2022-09-28T10:35:59.935Z,11.78
2022-09-28T10:36:59.961Z,11.82
2022-09-28T10:37:59.869Z,11.97
2022-09-28T10:38:59.871Z,12.04
2022-09-28T10:39:59.957Z,12.06
2022-09-28T10:40:59.933Z,12.12
2022-09-28T10:41:59.829Z,12.11
2022-09-28T10:42:59.807Z,12.09
2022-09-28T10:43:59.808Z,12.08
2022-09-28T10:44:59.796Z,12.09
2022-09-28T10:45:59.801Z,12.11
2022-09-28T10:46:59.759Z,12.13
2022-09-28T10:47:59.753Z,12.15
2022-09-28T10:48:59.733Z,12.19
2022-09-28T10:49:59.743Z,12.20
2022-09-28T10:50:59.730Z,12.19
2022-09-28T10:51:59.720Z,12.19
2022-09-28T10:52:59.695Z,12.24
2022-09-28T10:53:59.682Z,12.24
2022-09-28T10:54:59.676Z,12.27
2022-09-28T10:55:59.672Z,12.30
2022-09-28T10:56:59.676Z,12.30
2022-09-28T10:57:59.677Z,12.30
2022-09-28T10:58:59.618Z,12.30
2022-09-28T10:59:59.618Z,12.33
2022-09-28T11:00:59.686Z,12.33
2022-09-28T11:01:59.697Z,12.34
2022-09-28T11:02:59.687Z,12.34
2022-09-28T11:03:59.587Z,12.39
2022-09-28T11:04:59.580Z,12.29
2022-09-28T11:05:59.548Z,12.27
2022-09-28T11:07:59.539Z,12.37
2022-09-28T11:08:59.539Z,12.33
2022-09-28T11:09:59.504Z,12.29
2022-09-28T11:10:59.528Z,12.27
2022-09-28T11:11:59.500Z,12.30
2022-09-28T11:12:59.479Z,12.38
2022-09-28T11:13:59.450Z,12.46
2022-09-28T11:14:59.440Z,12.52
2022-09-28T11:15:59.430Z,12.49
2022-09-28T11:16:59.464Z,12.46
2022-09-28T11:17:59.431Z,12.45
2022-09-28T11:18:59.432Z,12.44
2022-09-28T11:19:59.385Z,12.46
2022-09-28T11:20:59.395Z,12.41
2022-09-28T11:21:59.360Z,12.38
2022-09-28T11:22:59.394Z,12.37
2022-09-28T11:23:59.345Z,12.33
2022-09-28T11:24:59.322Z,12.34
2022-09-28T11:25:59.345Z,12.26
2022-09-28T11:26:59.313Z,12.26
2022-09-28T11:27:59.329Z,12.30
2022-09-28T11:28:59.281Z,12.34
2022-09-28T11:29:59.290Z,12.44
2022-09-28T11:30:59.325Z,12.44
2022-09-28T11:31:59.266Z,12.51
2022-09-28T11:32:59.256Z,12.62
2022-09-28T11:33:59.249Z,12.77
2022-09-28T11:35:00.287Z,12.81
2022-09-28T11:35:59.223Z,12.89
2022-09-28T11:37:01.671Z,12.96
2022-09-28T11:37:59.191Z,12.95
2022-09-28T11:38:59.192Z,12.85
2022-09-28T11:39:59.159Z,12.78
2022-09-28T11:40:59.195Z,12.70
2022-09-28T11:41:59.185Z,12.64
2022-09-28T11:42:59.159Z,12.41
2022-09-28T11:43:59.121Z,12.24
2022-09-28T11:44:59.097Z,12.19
2022-09-28T11:45:59.154Z,12.12
2022-09-28T11:46:59.081Z,12.08
2022-09-28T11:47:59.081Z,11.99
2022-09-28T11:48:59.052Z,11.97
2022-09-28T11:49:59.058Z,11.86
2022-09-28T11:50:59.050Z,11.86
2022-09-28T11:51:59.027Z,11.85
2022-09-28T11:52:59.008Z,11.77
2022-09-28T11:53:59.195Z,11.75
2022-09-28T11:54:58.989Z,11.74
2022-09-28T11:55:58.999Z,11.68
2022-09-28T11:56:58.986Z,11.64
2022-09-28T11:57:58.957Z,11.54
2022-09-28T11:58:58.945Z,11.50
2022-09-28T11:59:58.955Z,11.46
2022-09-28T12:00:58.929Z,11.36
2022-09-28T12:01:58.972Z,11.27
2022-09-28T12:02:59.040Z,11.19
2022-09-28T12:03:58.884Z,11.14
2022-09-28T12:04:58.874Z,11.03
2022-09-28T12:05:58.868Z,10.99
2022-09-28T12:06:58.845Z,10.98
2022-09-28T12:07:58.855Z,10.92
2022-09-28T12:08:58.829Z,10.86
2022-09-28T12:09:58.812Z,10.88
2022-09-28T12:10:58.797Z,10.91
2022-09-28T12:11:58.809Z,10.92
2022-09-28T12:12:58.779Z,10.94
2022-09-28T12:13:59.727Z,10.94
2022-09-28T12:14:58.778Z,10.94
2022-09-28T12:16:27.207Z,10.96
2022-09-28T12:17:08.250Z,11.01
2022-09-28T12:17:59.832Z,11.07
2022-09-28T12:19:58.723Z,11.11
2022-09-28T12:21:00.553Z,11.13
2022-09-28T12:21:58.682Z,11.19
2022-09-28T12:22:58.698Z,11.21
2022-09-28T12:23:58.689Z,11.29
2022-09-28T12:24:58.642Z,11.41
2022-09-28T12:25:58.642Z,11.47
2022-09-28T12:26:58.644Z,11.61
2022-09-28T12:27:58.614Z,11.72
2022-09-28T12:28:58.637Z,11.89
2022-09-28T12:29:58.715Z,11.99
2022-09-28T12:30:58.637Z,11.90
2022-09-28T12:31:58.573Z,11.83
2022-09-28T12:32:58.553Z,11.90
2022-09-28T12:33:58.552Z,12.05
2022-09-28T12:34:58.546Z,12.20
2022-09-28T12:35:58.516Z,12.23
2022-09-28T12:36:58.508Z,12.30
2022-09-28T12:37:58.523Z,12.39
2022-09-28T12:40:00.250Z,12.31
2022-09-28T12:40:58.651Z,12.29
2022-09-28T12:41:58.459Z,12.19
2022-09-28T12:42:58.447Z,12.16
2022-09-28T12:43:58.433Z,12.16
2022-09-28T12:44:59.649Z,12.20
2022-09-28T12:46:11.549Z,12.06
2022-09-28T12:46:59.465Z,11.89
2022-09-28T12:47:58.405Z,11.93
2022-09-28T12:49:47.353Z,12.09
2022-09-28T12:51:00.512Z,12.15
2022-09-28T12:51:58.339Z,12.27
2022-09-28T12:53:00.819Z,12.29
2022-09-28T12:53:58.340Z,12.33
2022-09-28T12:54:58.340Z,12.44
2022-09-28T12:55:58.303Z,12.56
2022-09-28T12:56:58.281Z,12.67
2022-09-28T12:57:58.275Z,12.82
2022-09-28T12:58:58.290Z,12.92
2022-09-28T12:59:58.257Z,12.85
2022-09-28T13:00:58.258Z,12.67
2022-09-28T13:01:58.320Z,12.48
2022-09-28T13:02:58.296Z,12.41
2022-09-28T13:03:58.234Z,12.13
2022-09-28T13:04:58.199Z,12.02
2022-09-28T13:05:58.206Z,11.97
2022-09-28T13:06:58.174Z,11.87
2022-09-28T13:07:58.157Z,11.86
2022-09-28T13:08:58.174Z,11.87
2022-09-28T13:09:58.144Z,11.87